Time;durP1;ratioP1;P1;durP2;ratioP2;P2;SDS_P1;SDS_P2;PMS_P1;PMS_P2;Temp;Humidity;BMP_temperature;BMP_pressure;BME280_temperature;BME280_humidity;BME280_pressure;Samples;Min_cycle;Max_cycle;Signal;HPM_P1;HPM_P2
2022/01/03 00:02:25;;;;;;;3.78;0.40;;;8.20;99.90;;;;;;5033867;28;20399;-78
2022/01/03 00:04:52;;;;;;;5.25;0.50;;;8.20;99.90;;;;;;5049119;28;20403;-78
2022/01/03 00:07:18;;;;;;;2.95;0.40;;;8.20;99.90;;;;;;5049142;28;20444;-78
2022/01/03 00:09:44;;;;;;;8.23;1.00;;;8.20;99.90;;;;;;5049616;28;21300;-77
2022/01/03 00:12:09;;;;;;;6.95;0.80;;;8.20;99.90;;;;;;5067524;28;20465;-78
2022/01/03 00:14:35;;;;;;;6.32;0.80;;;8.20;99.90;;;;;;5049212;28;20762;-78
2022/01/03 00:17:01;;;;;;;11.20;1.10;;;8.20;99.90;;;;;;5049889;28;20784;-78
2022/01/03 00:19:27;;;;;;;11.60;1.63;;;8.20;99.90;;;;;;5049465;28;20429;-78
2022/01/03 00:21:56;;;;;;;6.03;1.20;;;8.20;99.90;;;;;;5049686;28;21097;-78
2022/01/03 00:24:31;;;;;;;7.32;1.48;;;8.20;99.90;;;;;;5049411;28;20410;-78
2022/01/03 00:27:00;;;;;;;9.63;1.77;;;8.20;99.90;;;;;;5032884;28;20403;-78
2022/01/03 00:29:30;;;;;;;12.15;1.98;;;8.20;99.90;;;;;;5048694;28;20416;-78
2022/01/03 00:31:57;;;;;;;9.43;1.83;;;8.20;99.90;;;;;;5049450;28;20415;-78
2022/01/03 00:34:27;;;;;;;10.75;1.80;;;8.20;99.90;;;;;;5032460;28;20465;-78
2022/01/03 00:36:55;;;;;;;10.35;2.33;;;8.30;99.90;;;;;;5032729;28;20482;-78
2022/01/03 00:39:20;;;;;;;13.70;2.40;;;8.30;99.90;;;;;;5059677;28;20398;-78
2022/01/03 00:41:48;;;;;;;11.80;2.00;;;8.40;99.90;;;;;;5069268;28;20433;-78
2022/01/03 00:44:14;;;;;;;14.00;2.58;;;8.40;99.90;;;;;;5069511;28;20874;-77
2022/01/03 00:46:41;;;;;;;14.80;3.05;;;8.50;99.90;;;;;;5069534;28;20454;-78
2022/01/03 00:49:07;;;;;;;15.88;3.05;;;8.50;99.90;;;;;;5069243;28;20975;-78
2022/01/03 00:51:33;;;;;;;13.07;2.90;;;8.60;99.90;;;;;;5052390;28;20413;-78
2022/01/03 00:53:59;;;;;;;16.23;2.95;;;8.60;99.90;;;;;;5069133;28;20402;-77
2022/01/03 00:56:34;;;;;;;14.30;2.92;;;8.70;99.90;;;;;;5069134;28;20390;-78
2022/01/03 00:59:10;;;;;;;12.75;2.50;;;8.70;99.90;;;;;;5068951;28;20445;-78
2022/01/03 01:01:43;;;;;;;16.10;3.40;;;8.70;99.90;;;;;;5052418;28;20434;-78
2022/01/03 01:04:09;;;;;;;15.45;2.85;;;8.80;99.90;;;;;;5068744;28;20416;-78
2022/01/03 01:06:36;;;;;;;11.68;2.38;;;8.90;99.90;;;;;;5068982;28;20418;-78
2022/01/03 01:09:06;;;;;;;14.65;2.83;;;8.90;99.90;;;;;;5068995;28;20410;-78
2022/01/03 01:11:33;;;;;;;17.27;3.17;;;8.90;99.90;;;;;;5069434;28;20398;-78
2022/01/03 01:14:00;;;;;;;15.37;2.57;;;8.90;99.90;;;;;;5068951;28;20417;-78
2022/01/03 01:16:27;;;;;;;12.35;2.65;;;9.00;99.90;;;;;;5069221;28;21261;-78
2022/01/03 01:18:53;;;;;;;14.93;2.80;;;9.00;99.90;;;;;;5073241;28;20435;-78
2022/01/03 01:21:19;;;;;;;16.00;3.10;;;9.10;99.90;;;;;;5073755;28;20520;-78
2022/01/03 01:23:48;;;;;;;19.25;3.45;;;9.10;99.90;;;;;;5073801;28;20393;-78
2022/01/03 01:29:02;;;;;;;20.05;3.35;;;9.00;99.90;;;;;;5073837;28;20417;-78
2022/01/03 01:31:28;;;;;;;18.70;3.63;;;9.10;99.90;;;;;;5073730;28;20764;-78
2022/01/03 01:33:55;;;;;;;20.10;3.88;;;9.10;99.90;;;;;;5073669;28;20408;-78
2022/01/03 01:36:26;;;;;;;21.98;3.05;;;9.10;99.90;;;;;;5073641;28;20406;-78
2022/01/03 01:39:00;;;;;;;20.00;3.55;;;9.10;99.90;;;;;;5066354;28;20408;-77
2022/01/03 01:41:27;;;;;;;22.38;3.50;;;9.10;99.90;;;;;;5053281;28;20442;-78
2022/01/03 01:43:58;;;;;;;19.50;3.33;;;9.10;99.90;;;;;;5053477;28;20453;-78
2022/01/03 01:46:24;;;;;;;17.58;3.60;;;9.10;99.90;;;;;;5071415;28;20435;-78
2022/01/03 01:48:51;;;;;;;21.17;3.70;;;9.10;99.90;;;;;;5053536;28;20765;-78
2022/01/03 01:51:21;;;;;;;19.23;3.55;;;9.10;99.90;;;;;;5053103;28;20416;-78
2022/01/03 01:53:50;;;;;;;21.70;3.55;;;9.20;99.90;;;;;;5053004;28;20468;-78
2022/01/03 01:56:21;;;;;;;22.30;4.03;;;9.20;99.90;;;;;;5053133;28;20444;-78
2022/01/03 01:59:02;;;;;;;19.75;3.63;;;9.20;99.90;;;;;;5052804;28;20419;-78
2022/01/03 02:01:47;;;;;;;23.15;4.43;;;9.20;99.90;;;;;;5052827;28;20428;-78
2022/01/03 02:04:33;;;;;;;20.08;4.28;;;9.20;99.90;;;;;;5052480;28;20944;-78
2022/01/03 02:07:40;;;;;;;24.45;4.45;;;9.20;99.90;;;;;;5071016;28;20411;-78
2022/01/03 02:10:15;;;;;;;23.70;4.00;;;9.20;99.90;;;;;;5031487;28;20953;-78
2022/01/03 02:12:46;;;;;;;27.52;4.15;;;9.10;99.90;;;;;;5032668;28;20413;-78
2022/01/03 02:15:15;;;;;;;22.65;4.00;;;9.10;99.90;;;;;;5049570;28;20450;-78
2022/01/03 02:17:44;;;;;;;23.20;3.63;;;9.10;99.90;;;;;;5049043;28;20440;-78
2022/01/03 02:20:16;;;;;;;23.10;4.38;;;9.10;99.90;;;;;;5048911;28;20429;-78
2022/01/03 02:22:43;;;;;;;25.33;4.43;;;9.10;99.90;;;;;;5049308;28;20463;-78
2022/01/03 02:25:11;;;;;;;26.00;4.10;;;9.10;99.90;;;;;;5048727;28;20410;-78
2022/01/03 02:27:38;;;;;;;24.58;3.55;;;9.20;99.90;;;;;;5049570;28;20795;-78
2022/01/03 02:30:10;;;;;;;19.98;3.67;;;9.20;99.90;;;;;;5047942;28;20493;-78
2022/01/03 02:32:36;;;;;;;24.23;4.18;;;9.30;99.90;;;;;;5048293;28;20405;-78
2022/01/03 02:35:03;;;;;;;22.27;3.78;;;9.30;99.90;;;;;;5049318;28;20415;-78
2022/01/03 02:37:28;;;;;;;21.80;3.63;;;9.30;99.90;;;;;;5048872;28;20411;-78
2022/01/03 02:39:55;;;;;;;24.20;5.00;;;9.30;99.90;;;;;;5049793;28;20421;-78
2022/01/03 02:42:23;;;;;;;24.73;4.68;;;9.30;99.90;;;;;;5048867;28;20910;-78
2022/01/03 02:45:09;;;;;;;25.67;4.57;;;9.30;99.90;;;;;;5048216;28;20421;-78
2022/01/03 02:47:35;;;;;;;22.20;4.43;;;9.30;99.90;;;;;;5031666;28;20413;-78
2022/01/03 02:50:04;;;;;;;24.60;4.40;;;9.30;99.90;;;;;;5048843;28;21133;-78
2022/01/03 02:52:29;;;;;;;23.98;4.18;;;9.40;99.90;;;;;;5031952;28;20413;-78
2022/01/03 02:54:56;;;;;;;24.23;4.47;;;9.40;99.90;;;;;;5048699;28;20492;-78
2022/01/03 02:57:23;;;;;;;24.55;5.13;;;9.40;99.90;;;;;;5047814;28;20474;-78
2022/01/03 02:59:56;;;;;;;26.98;4.47;;;9.40;99.90;;;;;;5048404;28;20500;-78
2022/01/03 03:02:24;;;;;;;25.27;4.20;;;9.40;99.90;;;;;;5048489;28;20410;-78
2022/01/03 03:04:58;;;;;;;23.33;4.75;;;9.40;99.90;;;;;;5048415;28;20409;-78
2022/01/03 03:07:26;;;;;;;26.35;4.80;;;9.40;99.90;;;;;;5048488;28;20496;-78
2022/01/03 03:09:52;;;;;;;24.35;4.55;;;9.40;99.90;;;;;;5047197;28;20405;-78
2022/01/03 03:12:18;;;;;;;21.35;4.57;;;9.40;99.90;;;;;;5047924;28;20489;-78
2022/01/03 03:14:44;;;;;;;28.63;4.57;;;9.40;99.90;;;;;;5069229;28;20402;-78
2022/01/03 03:17:09;;;;;;;22.10;4.17;;;9.40;99.90;;;;;;5048435;28;20402;-78
2022/01/03 03:19:56;;;;;;;25.87;5.07;;;9.40;99.90;;;;;;5048123;28;20421;-78
2022/01/03 03:22:24;;;;;;;24.15;4.40;;;9.40;99.90;;;;;;5030979;28;20414;-78
2022/01/03 03:24:50;;;;;;;24.20;5.15;;;9.40;99.90;;;;;;5031483;28;20409;-78
2022/01/03 03:27:17;;;;;;;27.17;5.00;;;9.40;99.90;;;;;;5048027;28;20406;-77
2022/01/03 03:29:45;;;;;;;22.55;4.32;;;9.40;99.90;;;;;;5047524;28;20412;-78
2022/01/03 03:32:11;;;;;;;26.70;4.55;;;9.40;99.90;;;;;;5047986;28;20417;-78
2022/01/03 03:34:37;;;;;;;25.63;4.73;;;9.40;99.90;;;;;;5047408;28;20961;-78
2022/01/03 03:37:02;;;;;;;27.90;5.50;;;9.30;99.90;;;;;;5049373;28;20440;-78
2022/01/03 03:39:29;;;;;;;26.45;4.72;;;9.30;99.90;;;;;;5047610;28;20753;-78
2022/01/03 03:41:54;;;;;;;24.90;4.70;;;9.30;99.90;;;;;;5047612;28;20447;-78
2022/01/03 03:44:20;;;;;;;27.70;5.63;;;9.30;99.90;;;;;;5047436;28;20406;-78
2022/01/03 03:46:45;;;;;;;24.63;5.00;;;9.20;99.90;;;;;;5047432;28;20419;-78
2022/01/03 03:49:11;;;;;;;29.90;5.30;;;9.20;99.90;;;;;;5047835;28;20408;-78
2022/01/03 03:51:38;;;;;;;28.30;5.00;;;9.20;99.90;;;;;;5048829;28;20406;-78
2022/01/03 03:54:04;;;;;;;27.65;4.80;;;9.20;99.90;;;;;;5047689;28;20768;-78
2022/01/03 03:56:30;;;;;;;25.63;5.60;;;9.20;99.90;;;;;;5048583;28;20405;-78
2022/01/03 03:58:56;;;;;;;27.10;5.43;;;9.10;99.90;;;;;;5046924;28;20474;-78
2022/01/03 04:01:21;;;;;;;26.52;5.13;;;9.00;99.90;;;;;;5048519;28;20426;-78
2022/01/03 04:03:47;;;;;;;27.57;5.17;;;9.00;99.90;;;;;;5047503;28;20445;-77
2022/01/03 04:06:12;;;;;;;23.27;5.07;;;8.90;99.90;;;;;;5047093;28;20406;-78
2022/01/03 04:08:38;;;;;;;24.37;4.53;;;8.90;99.90;;;;;;5047411;28;20433;-78
2022/01/03 04:11:04;;;;;;;32.17;5.10;;;8.90;99.90;;;;;;5047172;28;20414;-78
2022/01/03 04:13:29;;;;;;;26.47;5.30;;;8.90;99.90;;;;;;5048464;28;20414;-78
2022/01/03 04:15:55;;;;;;;25.93;5.57;;;8.90;99.90;;;;;;5047343;28;20436;-78
2022/01/03 04:18:21;;;;;;;27.83;5.72;;;8.90;99.90;;;;;;5047076;28;20409;-78
2022/01/03 04:20:46;;;;;;;26.43;5.10;;;8.90;99.90;;;;;;5063062;28;20435;-78
2022/01/03 04:23:13;;;;;;;25.63;5.07;;;8.90;99.90;;;;;;5066745;28;20412;-78
2022/01/03 04:25:38;;;;;;;28.75;5.15;;;8.90;99.90;;;;;;5067132;28;20416;-78
2022/01/03 04:28:04;;;;;;;26.50;5.50;;;8.90;99.90;;;;;;5067250;28;20525;-78
2022/01/03 04:30:30;;;;;;;24.02;4.97;;;8.90;99.90;;;;;;5066694;28;20412;-78
2022/01/03 04:32:56;;;;;;;27.63;5.35;;;8.90;99.90;;;;;;5067066;28;20419;-78
2022/01/03 04:35:22;;;;;;;30.00;5.57;;;8.90;99.90;;;;;;5066829;28;20404;-78
2022/01/03 04:37:47;;;;;;;31.13;5.68;;;8.90;99.90;;;;;;5066501;28;20415;-78
2022/01/03 04:40:13;;;;;;;23.95;4.90;;;8.90;99.90;;;;;;5066720;28;20518;-78
2022/01/03 04:42:39;;;;;;;26.97;5.10;;;8.90;99.90;;;;;;5066666;28;20403;-78
2022/01/03 04:45:05;;;;;;;27.08;4.75;;;8.90;99.90;;;;;;5066833;28;20415;-78
2022/01/03 04:47:30;;;;;;;26.60;5.07;;;8.90;99.90;;;;;;5066761;28;20486;-78
2022/01/03 04:49:56;;;;;;;31.58;5.20;;;8.90;99.90;;;;;;5066907;28;21027;-78
2022/01/03 04:52:22;;;;;;;30.13;6.10;;;8.90;99.90;;;;;;5068242;28;20411;-78
2022/01/03 04:54:47;;;;;;;28.25;5.03;;;8.90;99.90;;;;;;5071433;28;20408;-77
2022/01/03 04:57:13;;;;;;;30.63;5.27;;;8.90;99.90;;;;;;5053749;28;20404;-77
2022/01/03 04:59:38;;;;;;;30.08;5.97;;;8.90;99.90;;;;;;5070855;28;20808;-78
2022/01/03 05:02:05;;;;;;;26.45;5.75;;;9.00;99.90;;;;;;5070818;28;20408;-78
2022/01/03 05:04:31;;;;;;;33.38;5.93;;;9.00;99.90;;;;;;5052829;28;20486;-75
2022/01/03 05:06:57;;;;;;;32.17;5.75;;;9.00;99.90;;;;;;5070451;28;20438;-76
2022/01/03 05:09:22;;;;;;;31.77;5.53;;;9.00;99.90;;;;;;5070211;28;20416;-76
2022/01/03 05:11:48;;;;;;;29.73;5.63;;;9.00;99.90;;;;;;5070659;28;20928;-76
2022/01/03 05:14:15;;;;;;;26.90;4.93;;;9.00;99.90;;;;;;5070402;28;20499;-76
2022/01/03 05:16:40;;;;;;;32.47;6.00;;;9.00;99.90;;;;;;5053409;28;20530;-76
2022/01/03 05:19:06;;;;;;;27.20;5.27;;;9.10;99.90;;;;;;5068127;28;20485;-76
2022/01/03 05:21:31;;;;;;;26.30;5.10;;;9.00;99.90;;;;;;5050311;28;20919;-76
2022/01/03 05:23:57;;;;;;;32.60;6.03;;;9.00;99.90;;;;;;5050206;28;20409;-76
2022/01/03 05:26:23;;;;;;;28.50;6.03;;;9.00;99.90;;;;;;5050190;28;20409;-76
2022/01/03 05:28:48;;;;;;;29.83;5.30;;;9.00;99.90;;;;;;5050210;28;20429;-76
2022/01/03 05:31:14;;;;;;;28.60;5.68;;;9.00;99.90;;;;;;5033753;28;20508;-76
2022/01/03 05:33:40;;;;;;;30.55;5.78;;;9.00;99.90;;;;;;5051206;28;20420;-76
2022/01/03 05:36:06;;;;;;;33.20;6.15;;;9.00;99.90;;;;;;5033476;28;20405;-76
2022/01/03 05:38:32;;;;;;;34.50;6.07;;;9.00;99.90;;;;;;5049955;28;20483;-76
2022/01/03 05:40:58;;;;;;;30.37;6.13;;;8.90;99.90;;;;;;5050975;28;20907;-76
2022/01/03 05:43:23;;;;;;;28.87;5.80;;;8.90;99.90;;;;;;5049471;28;20474;-76
2022/01/03 05:45:49;;;;;;;32.00;6.68;;;8.90;99.90;;;;;;5050198;28;20577;-76
2022/01/03 05:48:15;;;;;;;33.05;5.88;;;9.00;99.90;;;;;;5051189;28;20401;-76
2022/01/03 05:50:41;;;;;;;36.60;6.40;;;9.00;99.90;;;;;;5049867;28;20496;-76
2022/01/03 05:53:06;;;;;;;29.30;5.82;;;9.00;99.90;;;;;;5049838;28;20965;-76
2022/01/03 05:55:32;;;;;;;28.75;5.70;;;9.00;99.90;;;;;;5050618;28;20432;-76
2022/01/03 05:57:58;;;;;;;35.57;6.03;;;9.00;99.90;;;;;;5049449;28;20472;-76
2022/01/03 06:00:25;;;;;;;33.40;6.50;;;9.00;99.90;;;;;;5049571;28;20437;-76
2022/01/03 06:02:57;;;;;;;31.58;6.13;;;9.00;99.90;;;;;;5049726;28;20970;-76
2022/01/03 06:07:57;;;;;;;29.65;5.80;;;8.90;99.90;;;;;;5049544;28;20425;-76
2022/01/03 06:10:24;;;;;;;34.33;6.20;;;8.90;99.90;;;;;;5030256;28;20484;-76
2022/01/03 06:12:49;;;;;;;32.83;6.35;;;8.90;99.90;;;;;;5030483;28;20761;-76
2022/01/03 06:15:15;;;;;;;34.75;6.03;;;8.90;99.90;;;;;;5030753;28;20404;-76
2022/01/03 06:17:45;;;;;;;29.63;5.80;;;8.90;99.90;;;;;;5029613;28;20426;-76
2022/01/03 06:20:11;;;;;;;33.88;6.93;;;8.90;99.90;;;;;;5030256;28;20434;-76
2022/01/03 06:22:39;;;;;;;36.95;6.05;;;8.80;99.90;;;;;;5030588;28;20442;-76
2022/01/03 06:25:05;;;;;;;30.73;6.20;;;8.90;99.90;;;;;;5029441;28;20415;-75
2022/01/03 06:27:30;;;;;;;33.95;6.20;;;8.90;99.90;;;;;;5028524;28;20414;-76
2022/01/03 06:29:56;;;;;;;34.97;7.33;;;8.90;99.90;;;;;;5030819;28;20437;-76
2022/01/03 06:32:22;;;;;;;31.45;5.93;;;9.00;99.90;;;;;;5012436;28;20818;-76
2022/01/03 06:34:47;;;;;;;28.67;5.70;;;9.00;99.90;;;;;;5029247;28;20415;-76
2022/01/03 06:37:13;;;;;;;30.53;6.53;;;9.00;99.90;;;;;;5028825;28;20498;-76
2022/01/03 06:39:39;;;;;;;28.10;6.13;;;9.00;99.90;;;;;;5028494;28;20805;-76
2022/01/03 06:42:05;;;;;;;30.60;5.53;;;9.10;99.90;;;;;;5028190;28;20434;-76
2022/01/03 06:44:30;;;;;;;36.00;6.50;;;9.10;99.90;;;;;;5028221;28;20422;-76
2022/01/03 06:46:56;;;;;;;40.20;7.27;;;9.00;99.90;;;;;;5028562;28;20407;-73
2022/01/03 06:49:21;;;;;;;28.95;5.95;;;9.00;99.90;;;;;;5029309;28;20438;-73
2022/01/03 06:51:47;;;;;;;32.77;5.37;;;9.00;99.90;;;;;;5029542;28;20521;-74
2022/01/03 06:54:14;;;;;;;31.65;6.05;;;9.00;99.90;;;;;;5037608;28;20554;-73
2022/01/03 06:56:40;;;;;;;34.47;6.43;;;9.00;99.90;;;;;;5029743;28;20960;-75
2022/01/03 06:59:06;;;;;;;35.30;7.28;;;9.00;99.90;;;;;;5028578;28;20415;-76
2022/01/03 07:01:31;;;;;;;32.37;5.83;;;9.00;99.90;;;;;;5028311;28;20435;-75
2022/01/03 07:03:57;;;;;;;29.60;6.32;;;9.00;99.90;;;;;;5028738;28;20864;-76
2022/01/03 07:06:23;;;;;;;30.00;6.18;;;9.00;99.90;;;;;;5029488;28;20731;-76
2022/01/03 07:08:48;;;;;;;27.83;6.03;;;9.10;99.90;;;;;;5033530;28;20414;-76
2022/01/03 07:11:14;;;;;;;30.83;6.05;;;9.10;99.90;;;;;;5031894;28;20444;-76
2022/01/03 07:19:12;;;;;;;33.30;6.40;;;9.10;99.90;;;;;;5048809;28;20413;-76
2022/01/03 07:21:38;;;;;;;30.90;6.05;;;9.10;99.90;;;;;;5048696;28;20437;-76
2022/01/03 07:24:04;;;;;;;31.93;6.33;;;9.10;99.90;;;;;;5047811;28;20767;-76
2022/01/03 07:26:30;;;;;;;36.33;6.78;;;9.10;99.90;;;;;;5047949;28;20839;-76
2022/01/03 07:28:56;;;;;;;30.52;6.05;;;9.10;99.90;;;;;;5048244;28;20406;-76
2022/01/03 07:31:22;;;;;;;33.88;6.80;;;9.10;99.90;;;;;;5048129;28;20787;-76
2022/01/03 07:33:47;;;;;;;35.50;7.15;;;9.00;99.90;;;;;;5046387;28;20421;-76
2022/01/03 07:36:13;;;;;;;38.50;6.97;;;9.00;99.90;;;;;;5046914;28;20942;-76
2022/01/03 07:38:39;;;;;;;31.25;6.32;;;9.00;99.90;;;;;;5030703;28;20421;-76
2022/01/03 07:41:05;;;;;;;36.97;5.90;;;9.00;99.90;;;;;;5048606;28;20475;-76
2022/01/03 07:43:31;;;;;;;34.13;6.43;;;9.00;99.90;;;;;;5047324;28;20504;-76
2022/01/03 07:45:57;;;;;;;38.73;6.47;;;9.00;99.90;;;;;;5047783;28;20869;-76
2022/01/03 07:48:22;;;;;;;35.20;6.95;;;9.00;99.90;;;;;;5047587;28;20447;-76
2022/01/03 07:50:49;;;;;;;32.77;6.40;;;9.00;99.90;;;;;;5047807;28;20433;-76
2022/01/03 07:53:15;;;;;;;37.20;6.85;;;9.00;99.90;;;;;;5047135;28;20505;-76
2022/01/03 07:55:40;;;;;;;32.05;5.85;;;9.00;99.90;;;;;;5046597;28;20493;-76
2022/01/03 07:58:06;;;;;;;28.50;6.07;;;9.00;99.90;;;;;;5046532;28;20417;-76
2022/01/03 08:00:32;;;;;;;33.40;6.30;;;9.00;99.90;;;;;;5046461;28;20444;-76
2022/01/03 08:02:57;;;;;;;31.67;5.80;;;9.00;99.90;;;;;;5046107;28;20772;-76
2022/01/03 08:05:23;;;;;;;31.77;6.05;;;9.00;99.90;;;;;;5045935;28;20406;-75
2022/01/03 08:07:49;;;;;;;34.30;6.47;;;9.00;99.90;;;;;;5030110;28;20462;-76
2022/01/03 08:10:15;;;;;;;32.90;5.70;;;9.00;99.90;;;;;;5047036;28;20426;-76
2022/01/03 08:12:41;;;;;;;36.42;6.68;;;9.00;99.90;;;;;;5066288;28;20408;-76
2022/01/03 08:15:08;;;;;;;34.45;6.35;;;9.00;99.90;;;;;;5066124;28;20499;-76
2022/01/03 08:17:34;;;;;;;34.45;6.00;;;9.00;99.90;;;;;;5049454;28;20483;-76
2022/01/03 08:20:00;;;;;;;33.17;6.78;;;9.00;99.90;;;;;;5039177;28;20398;-76
2022/01/03 08:22:26;;;;;;;33.60;6.72;;;9.10;99.90;;;;;;5045911;28;20409;-76
2022/01/03 08:24:52;;;;;;;38.25;6.43;;;9.10;99.90;;;;;;5047489;28;20420;-76
2022/01/03 08:27:18;;;;;;;34.87;6.83;;;9.10;99.90;;;;;;5045434;28;20420;-76
2022/01/03 08:29:43;;;;;;;34.60;6.10;;;9.10;99.90;;;;;;5045523;28;20496;-77
2022/01/03 08:32:09;;;;;;;38.88;6.78;;;9.10;99.90;;;;;;5046011;28;20441;-76
2022/01/03 08:34:35;;;;;;;31.03;5.93;;;9.10;99.90;;;;;;5045601;28;20467;-76
2022/01/03 08:37:00;;;;;;;31.00;6.32;;;9.10;99.90;;;;;;5046074;28;20425;-77
2022/01/03 08:39:27;;;;;;;32.33;6.68;;;9.20;99.90;;;;;;5047094;28;20802;-77
2022/01/03 08:41:53;;;;;;;28.17;6.05;;;9.20;99.90;;;;;;5045145;28;20434;-76
2022/01/03 08:44:18;;;;;;;32.90;6.13;;;9.20;99.90;;;;;;5029290;28;20420;-76
2022/01/03 08:46:46;;;;;;;33.27;6.10;;;9.30;99.90;;;;;;5047188;28;20760;-76
2022/01/03 08:49:12;;;;;;;35.17;6.72;;;9.30;99.90;;;;;;5045789;28;20463;-76
2022/01/03 08:51:38;;;;;;;31.65;6.00;;;9.30;99.90;;;;;;5046953;28;20513;-76
2022/01/03 08:54:04;;;;;;;32.95;6.18;;;9.40;99.90;;;;;;5047077;28;20518;-76
2022/01/03 08:56:30;;;;;;;27.73;5.63;;;9.40;99.90;;;;;;5046842;28;20496;-77
2022/01/03 08:58:55;;;;;;;33.87;6.43;;;9.40;99.90;;;;;;5047202;28;20919;-76
2022/01/03 09:01:21;;;;;;;30.05;6.13;;;9.40;99.90;;;;;;5045107;28;20486;-76
2022/01/03 09:03:50;;;;;;;25.50;4.87;;;9.50;99.90;;;;;;5045732;28;20405;-76
2022/01/03 09:06:19;;;;;;;29.60;6.17;;;9.50;99.90;;;;;;5045737;28;20447;-77
2022/01/03 09:08:45;;;;;;;30.55;5.88;;;9.50;99.90;;;;;;5045190;28;21128;-77
2022/01/03 09:11:12;;;;;;;30.85;6.20;;;9.50;99.90;;;;;;5045672;28;20487;-77
2022/01/03 09:13:37;;;;;;;32.10;5.65;;;9.60;99.90;;;;;;5029302;28;20457;-76
2022/01/03 09:16:06;;;;;;;31.30;6.18;;;9.60;99.90;;;;;;5045600;28;20440;-76
2022/01/03 09:18:34;;;;;;;27.85;5.05;;;9.50;99.90;;;;;;5045441;28;20444;-77
2022/01/03 09:20:59;;;;;;;31.58;6.18;;;9.60;99.90;;;;;;5046541;28;20436;-76
2022/01/03 09:23:30;;;;;;;28.38;5.43;;;9.60;99.90;;;;;;5045746;28;20405;-77
2022/01/03 09:28:51;;;;;;;30.73;5.93;;;9.60;99.90;;;;;;5045927;28;20452;-77
2022/01/03 09:31:20;;;;;;;26.58;4.45;;;9.60;99.90;;;;;;5047928;28;20049;-76
2022/01/03 09:33:46;;;;;;;25.85;3.42;;;9.60;99.90;;;;;;5029859;28;20052;-76
2022/01/03 09:36:11;;;;;;;32.20;4.55;;;9.60;99.90;;;;;;5048403;28;20406;-76
2022/01/03 09:38:38;;;;;;;19.80;3.58;;;9.70;99.90;;;;;;5049990;28;20040;-76
2022/01/03 09:41:05;;;;;;;;;;;9.70;99.90;;;;;;5051131;28;20056;-77
2022/01/03 09:43:36;;;;;;;;;;;9.70;99.90;;;;;;5051789;28;19920;-76
2022/01/03 09:46:02;;;;;;;;;;;9.70;99.90;;;;;;5052490;28;19924;-77
2022/01/03 09:48:28;;;;;;;;;;;9.80;99.90;;;;;;5050638;28;20385;-77
2022/01/03 09:50:55;;;;;;;;;;;9.80;99.90;;;;;;5050758;28;20007;-76
2022/01/03 09:53:21;;;;;;;;;;;9.80;99.90;;;;;;5033618;28;20005;-76
2022/01/03 09:55:47;;;;;;;;;;;9.80;99.90;;;;;;5049999;28;20366;-76
2022/01/03 09:58:14;;;;;;;;;;;9.80;99.90;;;;;;5051945;28;19943;-77
2022/01/03 10:00:40;;;;;;;;;;;9.90;99.90;;;;;;5050256;28;19931;-77
2022/01/03 10:03:06;;;;;;;;;;;9.90;99.90;;;;;;5050659;28;19921;-77
2022/01/03 10:05:32;;;;;;;;;;;9.90;99.90;;;;;;5050389;28;20001;-76
2022/01/03 10:07:57;;;;;;;;;;;9.90;99.90;;;;;;5051119;28;20110;-77
2022/01/03 10:10:24;;;;;;;;;;;9.90;99.90;;;;;;5070221;28;19924;-76
2022/01/03 10:12:50;;;;;;;;;;;9.90;99.90;;;;;;5053748;28;20359;-76
2022/01/03 10:15:15;;;;;;;;;;;9.90;99.90;;;;;;5053581;28;20019;-77
2022/01/03 10:17:41;;;;;;;;;;;9.90;99.90;;;;;;5053517;28;20524;-76
2022/01/03 10:20:12;;;;;;;;;;;10.00;99.90;;;;;;5064211;28;20471;-77
2022/01/03 10:22:38;;;;;;;;;;;10.00;99.90;;;;;;5091360;28;19920;-77
2022/01/03 10:25:10;;;;;;;;;;;10.00;99.90;;;;;;5073274;28;19985;-77
2022/01/03 10:27:50;;;;;;;;;;;10.00;99.90;;;;;;5073611;28;20326;-76
2022/01/03 10:30:30;;;;;;;;;;;10.10;99.90;;;;;;5073423;28;19920;-77
2022/01/03 10:32:56;;;;;;;;;;;10.10;99.90;;;;;;5073637;28;20465;-77
2022/01/03 10:35:22;;;;;;;;;;;10.10;99.90;;;;;;5072867;28;19924;-77
2022/01/03 10:37:49;;;;;;;;;;;10.10;99.90;;;;;;5073172;28;19963;-77
2022/01/03 10:40:16;;;;;;;;;;;10.10;99.90;;;;;;5072821;28;19927;-77
2022/01/03 10:42:41;;;;;;;;;;;10.20;99.90;;;;;;5073196;28;19920;-76
2022/01/03 10:45:07;;;;;;;;;;;10.20;99.90;;;;;;5073069;28;20305;-77
2022/01/03 10:47:33;;;;;;;;;;;10.20;99.90;;;;;;5072977;28;20263;-76
2022/01/03 10:50:11;;;;;;;;;;;10.20;99.90;;;;;;5071883;28;20046;-76
2022/01/03 10:52:39;;;;;;;;;;;10.20;99.90;;;;;;5056311;28;19928;-76
2022/01/03 10:55:15;;;;;;;;;;;10.20;99.90;;;;;;5073171;28;19924;-76
2022/01/03 10:57:54;;;;;;;;;;;10.20;99.90;;;;;;5072741;28;19919;-77
2022/01/03 11:00:29;;;;;;;;;;;10.30;99.90;;;;;;5072628;28;19927;-77
2022/01/03 11:03:18;;;;;;;;;;;10.30;99.90;;;;;;5072706;28;20019;-76
2022/01/03 11:05:48;;;;;;;;;;;10.30;99.90;;;;;;5055891;28;19920;-76
2022/01/03 11:10:58;;;;;;;;;;;10.30;99.90;;;;;;5072507;28;19942;-76
2022/01/03 11:13:23;;;;;;;;;;;10.30;99.90;;;;;;5072304;28;20374;-76
2022/01/03 11:15:55;;;;;;;;;;;10.30;99.90;;;;;;5090293;28;19978;-76
2022/01/03 11:18:24;;;;;;;;;;;10.30;99.90;;;;;;5090611;28;19920;-76
2022/01/03 11:21:00;;;;;;;;;;;10.30;99.90;;;;;;5072031;28;19920;-76
2022/01/03 11:23:26;;;;;;;;;;;10.30;99.90;;;;;;5071731;28;20396;-76
2022/01/03 11:25:54;;;;;;;;;;;10.20;99.90;;;;;;5072175;28;20002;-77
2022/01/03 11:28:25;;;;;;;;;;;10.20;99.90;;;;;;5072415;28;19946;-76
2022/01/03 11:30:52;;;;;;;;;;;10.20;99.90;;;;;;5072361;28;20465;-76
2022/01/03 11:33:18;;;;;;;;;;;10.20;99.90;;;;;;5071321;28;19946;-77
2022/01/03 11:35:48;;;;;;;;;;;10.20;99.90;;;;;;5071820;28;19920;-76
2022/01/03 11:38:21;;;;;;;;;;;10.20;99.90;;;;;;5071745;28;19928;-76
2022/01/03 11:40:47;;;;;;;;;;;10.10;99.90;;;;;;5071672;28;19927;-76
2022/01/03 11:43:13;;;;;;;;;;;10.20;99.90;;;;;;5071522;28;19920;-77
2022/01/03 11:45:39;;;;;;;;;;;10.30;99.90;;;;;;5071899;28;19975;-77
2022/01/03 11:48:06;;;;;;;;;;;10.20;99.90;;;;;;5071659;28;20361;-76
2022/01/03 11:50:32;;;;;;;;;;;10.30;99.90;;;;;;5071807;28;19922;-76
2022/01/03 11:52:57;;;;;;;;;;;10.30;99.90;;;;;;5072023;28;19977;-76
2022/01/03 11:55:24;;;;;;;;;;;10.30;99.90;;;;;;5071527;28;19920;-76
2022/01/03 12:03:39;;;;;;;;;;;10.50;99.90;;;;;;5071668;28;20461;-76
2022/01/03 12:06:06;;;;;;;;;;;10.50;99.90;;;;;;5089563;28;20054;-76
2022/01/03 12:08:33;;;;;;;;;;;10.50;99.90;;;;;;5089090;28;19973;-76
2022/01/03 12:11:00;;;;;;;;;;;10.50;99.90;;;;;;5071230;28;20609;-76
2022/01/03 12:13:58;;;;;;;;;;;10.40;99.90;;;;;;5071664;28;20458;-76
2022/01/03 12:16:40;;;;;;;;;;;10.50;99.90;;;;;;5044016;28;19927;-76
2022/01/03 12:19:07;;;;;;;;;;;10.40;99.90;;;;;;5069039;28;20309;-76
2022/01/03 12:21:53;;;;;;;;;;;10.40;99.90;;;;;;5050969;28;20387;-76
2022/01/03 12:24:30;;;;;;;;;;;10.40;99.90;;;;;;5069466;28;19975;-76
2022/01/03 12:27:11;;;;;;;;;;;10.40;99.90;;;;;;5069338;28;19943;-76
2022/01/03 12:29:58;;;;;;;;;;;10.40;99.90;;;;;;5051122;28;20570;-76
2022/01/03 12:32:40;;;;;;;;;;;10.40;99.90;;;;;;5068659;28;20292;-76
2022/01/03 12:35:06;;;;;;;;;;;10.40;99.90;;;;;;5050979;28;19954;-76
2022/01/03 12:37:32;;;;;;;;;;;10.40;99.90;;;;;;5051233;28;20036;-76
2022/01/03 12:40:04;;;;;;;;;;;10.40;99.90;;;;;;5050927;28;20038;-76
2022/01/03 12:45:33;;;;;;;;;;;10.40;99.90;;;;;;5084474;28;19960;-76
2022/01/03 12:48:08;;;;;;;;;;;10.40;99.90;;;;;;5051327;28;19932;-76
2022/01/03 12:50:34;;;;;;;;;;;10.50;99.90;;;;;;5034579;28;19928;-76
2022/01/03 12:53:01;;;;;;;;;;;10.70;99.90;;;;;;5050766;28;19924;-76
2022/01/03 12:55:39;;;;;;;;;;;10.80;99.90;;;;;;5084526;28;20295;-76
2022/01/03 12:58:13;;;;;;;;;;;10.80;99.90;;;;;;5050567;28;20003;-76
2022/01/03 13:00:58;;;;;;;;;;;10.80;99.90;;;;;;5050870;28;20394;-76
2022/01/03 13:03:24;;;;;;;;;;;10.70;99.90;;;;;;5034160;28;19934;-76
2022/01/03 13:06:12;;;;;;;;;;;10.60;99.90;;;;;;5068461;28;19924;-76
2022/01/03 13:08:39;;;;;;;;;;;10.50;99.90;;;;;;5050514;28;19998;-76
2022/01/03 13:11:08;;;;;;;;;;;10.50;99.90;;;;;;5084744;28;20436;-76
2022/01/03 13:13:34;;;;;;;;;;;10.40;99.90;;;;;;5085775;28;20469;-76
2022/01/03 13:16:15;;;;;;;;;;;10.40;99.90;;;;;;5038011;28;20011;-76
2022/01/03 13:18:43;;;;;;;;;;;10.50;99.90;;;;;;5054730;28;20393;-76
2022/01/03 13:21:12;;;;;;;;;;;10.50;99.90;;;;;;5073695;28;19956;-76
2022/01/03 13:23:37;;;;;;;;;;;10.50;99.90;;;;;;5074962;28;19947;-76
2022/01/03 13:26:03;;;;;;;;;;;10.50;99.90;;;;;;5073985;28;19924;-76
2022/01/03 13:28:29;;;;;;;;;;;10.50;99.90;;;;;;5074478;28;19920;-76
2022/01/03 13:30:58;;;;;;;;;;;10.50;99.90;;;;;;5057600;28;19931;-76
2022/01/03 13:33:24;;;;;;;;;;;10.60;99.90;;;;;;5074021;28;19927;-76
2022/01/03 13:36:03;;;;;;;;;;;10.60;99.90;;;;;;5074106;28;20294;-76
2022/01/03 13:38:29;;;;;;;;;;;10.60;99.90;;;;;;5057579;28;20061;-76
2022/01/03 13:41:07;;;;;;;;;;;10.60;99.90;;;;;;5074479;28;20007;-77
2022/01/03 13:43:39;;;;;;;;;;;10.60;99.90;;;;;;5073809;28;20386;-76